Nederlandse vliegveldverwachtingen (TAF)

Luchtvaartmeteorologische informatie voor operationeel gebruik en vluchtvoorbereiding is beschikbaar op www.luchtvaartmeteo.nl.

ZCZC
FC080500 EHKD RRA DE KOOY/DE KOOY   NLD   1 m.
TAF EHKD 080544Z 0806/0818 32010KT 9999 SCT022
    TEMPO 0806/0818 33015G25KT 3500 SHRASN SCT010 SCT015CB=

ZCZC
FC080500 EHGR RRC GILZE-RIJEN/GILZE-RIJEN   NLD   14 m.
TAF EHGR 080547Z 0806/0818 24007KT 9999 SCT025
    TEMPO 0806/0816 30010G20KT 3500 SHRASN SCT010 SCT015CB
    BECMG 0815/0818 3000 BR MIFG=

ZCZC
FC080500 EHLW RRB LEEUWARDEN/LEEUWARDEN   NLD   1 m.
TAF EHLW 080543Z 0806/0818 30004KT 9999 SCT020 BKN030
    TEMPO 0806/0815 32010G25KT 2000 SHRASN SHRAGS FEW005
    SCT010 SCT015CB
    BECMG 0812/0814 22003KT
    BECMG 0815/1818 2500 BR MIFG
    TEMPO 0816/0818 0400 BCFG=

ZCZC
FC080500 EHVK RRD VOLKEL/VOLKEL   NLD   21 m.
TAF EHVK 080550Z 0806/0818 25007KT 7000 SCT008 BKN012
    TEMPO 0806/0815 3000 SHRA SHRASN SCT010 SCT015CB
    BECMG 0807/0809 SCT030
    BECMG 0815/0818 3000 BR MIFG=

ZCZC
FC080500 EHWO RRE WOENSDRECHT/WOENSDRECHT   NLD   19 m.
TAF EHWO 080600Z 0806/0818 26007KT 9999 SCT025
    PROB30 TEMPO 0806/0809 FEW010 SCT015CB
    TEMPO 0809/0813 30010G20KT 3500 SHRASN SCT010 SCT015CB
    PROB40 TEMPO 0813/0816 FEW010 SCT015CB
    BECMG 0815/0818 3000 BR MIFG=

ZCZC
FT080500 EHLE     LELYSTAD/LELYSTAD   NLD   -3 m.
TAF EHLE 080509Z 0806/0912 23005KT 9999 SCT030
    TEMPO 0806/0808 31010KT 7000 -SHRA FEW020CB BKN025
    PROB30 TEMPO 0806/0808 4000 SHRA SHRAGS SCT015CB BKN018
    PROB30 TEMPO 0808/0816 7000 -SHRA FEW020CB BKN025
    BECMG 0817/0820 VRB02KT 2000 BCFG BR
    BECMG 0820/0823 0600 FG FZFG
    PROB40 0822/0908 0100 VV000
    BECMG 0908/0911 19005KT 8000 NSW BKN008=

ZCZC
FT080500 EHAM     AMSTERDAM/SCHIPHOL   NLD   -3 m.
TAF EHAM 080509Z 0806/0912 23005KT 9999 SCT030
    TEMPO 0806/0808 31010KT 7000 -SHRA FEW020CB BKN025
    PROB30 TEMPO 0806/0808 4000 SHRA SHRAGS SCT015CB BKN018
    PROB30 TEMPO 0808/0816 7000 -SHRA FEW020CB BKN025
    BECMG 0820/0823 19005KT 3000 BR
    PROB30 0823/0912 0400 FG BKN001
    BECMG 0903/0906 0700 FG FZFG
    BECMG 0907/0910 1200 BR SCT002 BKN003=

ZCZC
FT080500 EHRD     ROTTERDAM/THE HAGUE AIRPORT   NLD   -5 m.
TAF EHRD 080509Z 0806/0912 23005KT 9999 SCT030
    TEMPO 0806/0810 7000 -SHRA FEW020CB BKN025
    PROB30 TEMPO 0806/0810 31010KT 4000 SHRA SHRAGS SCT015CB
    BKN018
    PROB30 TEMPO 0810/0820 7000 -SHRA FEW020CB BKN025
    BECMG 0818/0821 18004KT 2000 BCFG BR
    BECMG 0822/0901 0700 FG FZFG
    PROB40 0900/0910 0400 VV000
    BECMG 0909/0912 8000 NSW SCT006 BKN012=

ZCZC
FT080500 EHGG     GRONINGEN/EELDE   NLD   5 m.
TAF EHGG 080514Z 0806/0912 26008KT 9999 BKN020
    TEMPO 0806/0812 7000 SHRA FEW020CB
    PROB40 TEMPO 0806/0812 4000 SHRAGS SHRASN SCT008 SCT018CB
    BECMG 0821/0824 18005KT 2000 BCFG
    BECMG 0900/0903 0400 FG FZFG VV000
    BECMG 0907/0910 3000 BR BKN004=

ZCZC
FT080500 EHBK     MAASTRICHT/MAASTRICHT-AACHEN   NLD   114 m.
TAF EHBK 080514Z 0806/0912 23009KT 7000 BKN006
    PROB30 TEMPO 0806/0810 4000 -SHRA BKN004 FEW015CB
    BECMG 0810/0813 9999 FEW008
    PROB30 0817/0909 4000 BR MIFG BKN008=

ZCZC
FT080500 EHEH     EINDHOVEN/EINDHOVEN   NLD   22 m.
TAF EHEH 080555Z 0806/0912 24004KT 9999 SCT030 BKN045
    TEMPO 0806/0815 3000 SHRASN SCT006 SCT015CB
    BECMG 0816/0818 18002KT 3500 BR MIFG
    BECMG 0818/0820 0500 FG VV000
    PROB40 0909/0912 3000 BR BKN006=

08/12/2022 07.15 uur LT